Terminal Aerodrome Forecast
Issued by NWS Duluth, MN

Home | Current Version | Previous Version | Text Only | Print | Product List | Glossary On
Versions: 1 2 3 4 5 6 7 8 9 10 11 12 13 14 15 16 17 18 19 20 21 22 23
000
FTUS43 KDLH 271721
TAFDLH
TAF
KDLH 271721Z 2718/2818 08012G19KT 5SM -SHRA VCTS SCT030CB OVC090
     FM272200 07010KT 6SM -SHRA SCT020 OVC070
     FM280100 06005KT P6SM SCT070
     FM280700 06003KT 3SM BR SCT010
      TEMPO 2808/2812 3/4SM BR SCT005
     FM281200 07008KT P6SM SCT040=

USA.gov is the U.S. government's official web portal to all federal, state and local government web resources and services.